Sylvan, Pennsylvania
Current Conditions -  °F | °C
As of 11:53 PM on Wednesday 22 Oct 2014 (Local Time) from KHGR Reporting Station
Clear Clear  
Wind Chill: 50°   Ceiling: Unl
Heat Index: 50°   Visibility: 10mi
Dew Point: 40°   Wind: 9mph
Humidity: 68%   Direction: 320°NW
Pressure: 29.99"   Gusts: NA
Location:  39.8035°N, 77.9346°W
Report Text: KHGR 230353Z AUTO 32008KT 10SM CLR 10/04 A2999 RMK AO2 SLP166 T01000044 TSNO
Loading
Personal Weather Stations






























Interactive Weather Map
Tropical Storm Tracking
New forecast layout! Learn more

10-Day Weather Forecast

Advertisements
Track Severe Weather on mobile